YNL weather

Points North Landing Airport
Points North Landing, Saskatchewan, Canada

Public forecast

Using degrees Celsius for public forecast. Weather courtesy of forecast.io.

Closest aviation weather report (METAR) to Points North Landing Airport

Closest report is Key Lake Airport, 78.6 nm (145.5 km) SW. Retrieved 2020/04/06 18:00 UTC (35 minutes ago):

CYKJ 061800Z AUTO 11014G20KT 9SM BKN029 OVC034 M05/M11 A2982 RMK SLP136

Closest aviation forecast (TAF) to Points North Landing Airport

Closest forecast is Key Lake Airport, 78.6 nm (145.5 km) SW. Retrieved 2020/04/06 19:00 UTC (0 seconds ago):

TAF CYKJ 061838Z 0619/0624 11012G22KT P6SM BKN030 BKN100 TEMPO 0619/0620 2SM -SN FM062000 12012G22KT 3SM -SN OVC030 TEMPO 0620/0624 1SM -SN OVC012 RMK FCST BASED ON AUTO OBS NXT FCST WILL BE ISSUED AT 070945Z